Time,TemperatureF,DewpointF,PressureIn,WindDirection,WindDirectionDegrees,WindSpeedMPH,WindSpeedGustMPH,Humidity,HourlyPrecipIn,Conditions,Clouds,dailyrainin,SolarRadiationWatts/m^2,SoftwareType,DateUTC
2013-08-17 00:03:00,57.0,56.0,-100.00,SW,233,0.0,3.0,98,0.00,,,0.00,0.000000,,2013-08-17 04:03:00,
2013-08-17 00:13:00,57.0,56.0,-100.00,SW,233,0.0,3.0,98,0.00,,,0.00,0.000000,,2013-08-17 04:13:00,
2013-08-17 00:23:00,57.0,56.0,-100.00,SW,233,0.0,3.0,98,0.00,,,0.00,0.000000,,2013-08-17 04:23:00,
2013-08-17 00:53:00,55.0,54.0,-100.00,SSE,148,0.0,2.0,97,0.00,,,0.00,0.000000,,2013-08-17 04:53:00,
2013-08-17 01:03:00,55.0,54.0,-100.00,SSE,148,0.0,2.0,97,0.00,,,0.00,0.000000,,2013-08-17 05:03:00,
2013-08-17 01:13:00,55.0,54.0,-100.00,SSE,148,0.0,2.0,97,0.00,,,0.00,0.000000,,2013-08-17 05:13:00,
2013-08-17 01:22:00,55.0,54.0,-100.00,SSE,148,0.0,2.0,97,0.00,,,0.00,0.000000,,2013-08-17 05:22:00,
2013-08-17 01:52:00,55.0,54.0,-100.00,SE,144,0.0,2.0,98,0.00,,,0.00,0.000000,,2013-08-17 05:52:00,
2013-08-17 02:01:00,55.0,54.0,-100.00,SE,144,0.0,2.0,98,0.00,,,0.00,0.000000,,2013-08-17 06:01:00,
2013-08-17 02:12:00,55.0,54.0,-100.00,SE,144,0.0,2.0,98,0.00,,,0.00,0.000000,,2013-08-17 06:12:00,
2013-08-17 02:21:00,55.0,54.0,-100.00,SE,144,0.0,2.0,98,0.00,,,0.00,0.000000,,2013-08-17 06:21:00,
2013-08-17 02:52:00,53.0,53.0,-100.00,SSE,162,0.0,2.0,99,0.00,,,0.00,0.000000,,2013-08-17 06:52:00,
2013-08-17 03:01:00,53.0,53.0,-100.00,SSE,162,0.0,2.0,99,0.00,,,0.00,0.000000,,2013-08-17 07:01:00,
2013-08-17 03:11:00,53.0,53.0,-100.00,SSE,162,0.0,2.0,99,0.00,,,0.00,0.000000,,2013-08-17 07:11:00,
2013-08-17 03:22:00,53.0,53.0,-100.00,SSE,162,0.0,2.0,99,0.00,,,0.00,0.000000,,2013-08-17 07:22:00,
2013-08-17 03:52:00,52.0,51.0,-100.00,NNW,327,0.0,2.0,98,0.00,,,0.00,0.000000,,2013-08-17 07:52:00,
2013-08-17 04:02:00,52.0,51.0,-100.00,NNW,327,0.0,2.0,98,0.00,,,0.00,0.000000,,2013-08-17 08:02:00,
2013-08-17 04:11:00,52.0,51.0,-100.00,NNW,327,0.0,2.0,98,0.00,,,0.00,0.000000,,2013-08-17 08:11:00,
2013-08-17 04:21:00,52.0,51.0,-100.00,NNW,327,0.0,2.0,98,0.00,,,0.00,0.000000,,2013-08-17 08:21:00,
2013-08-17 04:52:00,52.0,52.0,-100.00,SSE,149,1.0,2.0,99,0.00,,,0.00,0.000000,,2013-08-17 08:52:00,
2013-08-17 05:02:00,52.0,52.0,-100.00,SSE,149,1.0,2.0,99,0.00,,,0.00,0.000000,,2013-08-17 09:02:00,
2013-08-17 05:11:00,52.0,52.0,-100.00,SSE,149,1.0,2.0,99,0.00,,,0.00,0.000000,,2013-08-17 09:11:00,
2013-08-17 05:21:00,52.0,52.0,-100.00,SSE,149,1.0,2.0,99,0.00,,,0.00,0.000000,,2013-08-17 09:21:00,
2013-08-17 05:53:00,52.0,52.0,-100.00,SSE,167,0.0,3.0,99,0.00,,,0.00,0.000000,,2013-08-17 09:53:00,
2013-08-17 06:03:00,52.0,52.0,-100.00,SSE,167,0.0,3.0,99,0.00,,,0.00,0.000000,,2013-08-17 10:03:00,
2013-08-17 06:12:00,52.0,52.0,-100.00,SSE,167,0.0,3.0,99,0.00,,,0.00,0.000000,,2013-08-17 10:12:00,
2013-08-17 06:23:00,52.0,52.0,-100.00,SSE,167,0.0,3.0,99,0.00,,,0.00,0.000000,,2013-08-17 10:23:00,
2013-08-17 06:53:00,52.0,52.0,-100.00,East,89,2.0,2.0,99,0.00,,,0.00,1.000000,,2013-08-17 10:53:00,
2013-08-17 07:02:00,52.0,52.0,-100.00,East,89,2.0,2.0,99,0.00,,,0.00,1.000000,,2013-08-17 11:02:00,
2013-08-17 07:12:00,52.0,52.0,-100.00,East,89,2.0,2.0,99,0.00,,,0.00,1.000000,,2013-08-17 11:12:00,
2013-08-17 07:22:00,52.0,52.0,-100.00,East,89,2.0,2.0,99,0.00,,,0.00,1.000000,,2013-08-17 11:22:00,
2013-08-17 07:52:00,52.0,51.0,-100.00,SE,129,0.0,2.0,97,0.00,,,0.00,22.000000,,2013-08-17 11:52:00,
2013-08-17 08:01:00,52.0,51.0,-100.00,SE,129,0.0,2.0,97,0.00,,,0.00,22.000000,,2013-08-17 12:01:00,
2013-08-17 08:11:00,52.0,51.0,-100.00,SE,129,0.0,2.0,97,0.00,,,0.00,22.000000,,2013-08-17 12:11:00,
2013-08-17 08:21:00,52.0,51.0,-100.00,SE,129,0.0,2.0,97,0.00,,,0.00,22.000000,,2013-08-17 12:21:00,
2013-08-17 09:11:00,64.0,58.0,-100.00,SE,128,1.0,3.0,81,0.00,,,0.00,166.000000,,2013-08-17 13:11:00,
2013-08-17 09:21:00,64.0,58.0,-100.00,SE,128,1.0,3.0,81,0.00,,,0.00,166.000000,,2013-08-17 13:21:00,
2013-08-17 10:11:00,72.0,60.0,-100.00,South,175,2.0,4.0,65,0.00,,,0.00,351.000000,,2013-08-17 14:11:00,
2013-08-17 10:21:00,72.0,60.0,-100.00,South,175,2.0,4.0,65,0.00,,,0.00,351.000000,,2013-08-17 14:21:00,
2013-08-17 10:52:00,76.0,59.0,-100.00,SSW,198,3.0,8.0,55,0.00,,,0.00,514.000000,,2013-08-17 14:52:00,
2013-08-17 11:01:00,76.0,59.0,-100.00,SSW,198,3.0,8.0,55,0.00,,,0.00,514.000000,,2013-08-17 15:01:00,
2013-08-17 11:12:00,76.0,59.0,-100.00,SSW,198,3.0,8.0,55,0.00,,,0.00,514.000000,,2013-08-17 15:12:00,
2013-08-17 11:22:00,76.0,59.0,-100.00,SSW,198,3.0,8.0,55,0.00,,,0.00,514.000000,,2013-08-17 15:22:00,
2013-08-17 11:54:00,78.0,56.0,-100.00,SE,136,3.0,7.0,47,0.00,,,0.00,638.000000,,2013-08-17 15:54:00,
2013-08-17 12:03:00,78.0,56.0,-100.00,SE,136,3.0,7.0,47,0.00,,,0.00,638.000000,,2013-08-17 16:03:00,
2013-08-17 12:12:00,78.0,56.0,-100.00,SE,136,3.0,7.0,47,0.00,,,0.00,638.000000,,2013-08-17 16:12:00,
2013-08-17 12:23:00,78.0,56.0,-100.00,SE,136,3.0,7.0,47,0.00,,,0.00,638.000000,,2013-08-17 16:23:00,
2013-08-17 12:53:00,79.0,52.0,-100.00,ESE,103,3.0,9.0,39,0.00,,,0.00,748.000000,,2013-08-17 16:53:00,
2013-08-17 13:02:00,79.0,52.0,-100.00,ESE,103,3.0,9.0,39,0.00,,,0.00,748.000000,,2013-08-17 17:02:00,
2013-08-17 13:12:00,79.0,52.0,-100.00,ESE,103,3.0,9.0,39,0.00,,,0.00,748.000000,,2013-08-17 17:12:00,
2013-08-17 13:23:00,79.0,52.0,-100.00,ESE,103,3.0,9.0,39,0.00,,,0.00,748.000000,,2013-08-17 17:23:00,
2013-08-17 13:52:00,81.0,52.0,-100.00,NNE,28,2.0,7.0,37,0.00,,,0.00,764.000000,,2013-08-17 17:52:00,
2013-08-17 14:02:00,81.0,52.0,-100.00,NNE,28,2.0,7.0,37,0.00,,,0.00,764.000000,,2013-08-17 18:02:00,
2013-08-17 14:12:00,81.0,52.0,-100.00,NNE,28,2.0,7.0,37,0.00,,,0.00,764.000000,,2013-08-17 18:12:00,
2013-08-17 14:21:00,81.0,52.0,-100.00,NNE,28,2.0,7.0,37,0.00,,,0.00,764.000000,,2013-08-17 18:21:00,
2013-08-17 14:52:00,81.0,52.0,-100.00,NE,44,3.0,9.0,36,0.00,,,0.00,739.000000,,2013-08-17 18:52:00,
2013-08-17 15:02:00,81.0,52.0,-100.00,NE,44,3.0,9.0,36,0.00,,,0.00,739.000000,,2013-08-17 19:02:00,
2013-08-17 15:11:00,81.0,52.0,-100.00,NE,44,3.0,9.0,36,0.00,,,0.00,739.000000,,2013-08-17 19:11:00,
2013-08-17 15:21:00,81.0,52.0,-100.00,NE,44,3.0,9.0,36,0.00,,,0.00,739.000000,,2013-08-17 19:21:00,
2013-08-17 15:52:00,81.0,52.0,-100.00,ENE,72,5.0,9.0,37,0.00,,,0.00,614.000000,,2013-08-17 19:52:00,
2013-08-17 16:02:00,81.0,52.0,-100.00,ENE,72,5.0,9.0,37,0.00,,,0.00,614.000000,,2013-08-17 20:02:00,
2013-08-17 16:11:00,81.0,52.0,-100.00,ENE,72,5.0,9.0,37,0.00,,,0.00,614.000000,,2013-08-17 20:11:00,
2013-08-17 16:21:00,81.0,52.0,-100.00,ENE,72,5.0,9.0,37,0.00,,,0.00,614.000000,,2013-08-17 20:21:00,
2013-08-17 16:52:00,79.0,50.0,-100.00,SE,140,2.0,9.0,37,0.00,,,0.00,408.000000,,2013-08-17 20:52:00,
2013-08-17 17:01:00,79.0,50.0,-100.00,SE,140,2.0,9.0,37,0.00,,,0.00,408.000000,,2013-08-17 21:01:00,
2013-08-17 17:11:00,79.0,50.0,-100.00,SE,140,2.0,9.0,37,0.00,,,0.00,408.000000,,2013-08-17 21:11:00,
2013-08-17 17:22:00,79.0,50.0,-100.00,SE,140,2.0,9.0,37,0.00,,,0.00,408.000000,,2013-08-17 21:22:00,
2013-08-17 19:11:00,80.0,51.0,-100.00,SE,134,3.0,9.0,36,0.00,,,0.00,350.000000,,2013-08-17 23:11:00,
2013-08-17 19:52:00,76.0,59.0,-100.00,NE,42,2.0,5.0,56,0.00,,,0.00,178.000000,,2013-08-17 23:52:00,
2013-08-17 20:01:00,76.0,59.0,-100.00,NE,42,2.0,5.0,56,0.00,,,0.00,178.000000,,2013-08-18 00:01:00,
2013-08-17 20:12:00,76.0,59.0,-100.00,NE,42,2.0,5.0,56,0.00,,,0.00,178.000000,,2013-08-18 00:12:00,
2013-08-17 20:21:00,76.0,59.0,-100.00,NE,42,2.0,5.0,56,0.00,,,0.00,178.000000,,2013-08-18 00:21:00,
2013-08-17 20:52:00,70.0,59.0,-100.00,East,83,2.0,9.0,69,0.00,,,0.00,29.000000,,2013-08-18 00:52:00,
2013-08-17 21:01:00,70.0,59.0,-100.00,East,83,2.0,9.0,69,0.00,,,0.00,29.000000,,2013-08-18 01:01:00,
2013-08-17 21:11:00,70.0,59.0,-100.00,East,83,2.0,9.0,69,0.00,,,0.00,29.000000,,2013-08-18 01:11:00,
2013-08-17 21:21:00,70.0,59.0,-100.00,East,83,2.0,9.0,69,0.00,,,0.00,29.000000,,2013-08-18 01:21:00,
2013-08-17 21:52:00,66.0,59.0,-100.00,ESE,107,2.0,4.0,77,0.00,,,0.00,0.000000,,2013-08-18 01:52:00,
2013-08-17 22:02:00,66.0,59.0,-100.00,ESE,107,2.0,4.0,77,0.00,,,0.00,0.000000,,2013-08-18 02:02:00,
2013-08-17 22:11:00,66.0,59.0,-100.00,ESE,107,2.0,4.0,77,0.00,,,0.00,0.000000,,2013-08-18 02:11:00,
2013-08-17 22:21:00,66.0,59.0,-100.00,ESE,107,2.0,4.0,77,0.00,,,0.00,0.000000,,2013-08-18 02:21:00,
2013-08-17 22:52:00,62.0,58.0,-100.00,SE,129,2.0,4.0,88,0.00,,,0.00,0.000000,,2013-08-18 02:52:00,
2013-08-17 23:02:00,62.0,58.0,-100.00,SE,129,2.0,4.0,88,0.00,,,0.00,0.000000,,2013-08-18 03:02:00,
2013-08-17 23:11:00,62.0,58.0,-100.00,SE,129,2.0,4.0,88,0.00,,,0.00,0.000000,,2013-08-18 03:11:00,
2013-08-17 23:21:00,62.0,58.0,-100.00,SE,129,2.0,4.0,88,0.00,,,0.00,0.000000,,2013-08-18 03:21:00,
2013-08-17 23:53:00,60.0,57.0,-100.00,SE,126,1.0,3.0,90,0.00,,,0.00,0.000000,,2013-08-18 03:53:00,